New Cuyama, CA (93254)

9:16 AM PDT on September 01, 2015 (GMT -0700)
APRSWXNET | | Change Station
CLOSE
Current Station
Personal Weather Station
Location: New Cuyama, CA
Elevation: 2160 ft
Nearby Weather Stations

Elev 2160 ft 34.95 °N, 119.68 °W | Updated 34 minutes ago

Partly Cloudy
Partly Cloudy
61 °F
Feels Like 61 °F
N
2
Wind Variable Wind from WNW
Gusts 3.0 mph

Today
High -- | Low -- °F
--% Chance of Precip.
Yesterday
High -- | Low -- °F
Precip. -- in
6:31 AM 7:25 PM
Waning Gibbous, 88% visible
Pressure 29.96 in
Visibility 5.0 miles
Clouds Mostly Cloudy 500 ft
Overcast 900 ft
Dew Point 42 °F
Humidity 50%
Rainfall in
Snow Depth Not available.
UV 1 out of 12
Pollen 8.60 out of 12
Air Quality Not available.
Flu Activity Not available.
METAR KIZA 011555Z AUTO 10004KT 5SM BR BKN005 OVC009 15/14 A2996 RMK AO2
Pressure 29.96 in
Visibility 5.0 miles
Clouds Mostly Cloudy 500 ft
Overcast 900 ft
Dew Point 42 °F
Humidity 50%
Rainfall in
Snow Depth Not available.
UV 1 out of 12
Pollen 8.60 out of 12
Air Quality Not available.
Flu Activity Not available.
METAR KIZA 011555Z AUTO 10004KT 5SM BR BKN005 OVC009 15/14 A2996 RMK AO2

10-Day Weather Forecast

×

Almanac

Astronomy

Sep. 01, 2015 Rise Set
Actual Time
Civil Twilight
Nautical Twilight
Astronomical Twilight
Moon
Length of Visible Light
Length of Day
Tomorrow will be .
, % of the Moon is Illuminated

Today's Extremes

State Highs State Lows

Community

WunderPhotos

Upload Photos

1,851,544 photos uploaded!

WunderBlogs® & News

Nearby

Air Quality

  Air Quality AQ Index Pollutant
Not available.

Snow Depth

Station Depth Elevation

Earthquake Activity

City Distance Mag. Time & Date
Minimum magnitude displayed is 2.5.

Coastal Water Temperatures

Place Temperature

Stations

Nearby Weather Stations

Station Location Temp. Windchill Dew Point Humidity Wind Precip. Elev Updated Type